Thunderstorms From: 25-05-2018 23:09 Until: 26-05-2018 15:00 warning for: Thunderstorms Level: Yellow info button

Although rather usual in this region, locally or potentially dangerous phenomena are expected. (such as local winds, summer thunderstorms, rising streams or high waves) Be aware and pay attention to the latest weather updates, especially if you carry out activities exposed to weather or close to a stream or shoreline. 


Meteo18 Weather Cam more information Meteo18 Weather Cam


warning for Thunderstorms more information blitzortung!


Rain radar more information rain snow radar


Visit our other weather sites:

Template documentation
and downloads

And another site



Weather Underground History page Text

Daily Summary for June 25, 2017 Units:  Metric    English   Both
« Previous Day
Next Day »
Daily Weekly Monthly Yearly Custom
  High: Low: Average:
Temperature: -17.8 °C -10.4 °C -6.9 °C
Dew Point: -17.8 °C -11.8 °C -10 °C
Humidity: Humidity % 53 % 70 %
Wind Speed: 0 km/h 0 km/h 8.5 km/h
Wind Gust: 0 km/h - -
Wind:- - WSW
Pressure: 0 hPa 34418.7 hPa -
Precipitation: 0 mm    
Historical Graphs
 
 
Tabular Data for June 25, 2017
Time Temperature Dew Point Pressure Wind Wind Speed Wind Gust Humidity Rainfall Rate (Hourly)
-17.8 °C -17.8 °C 0 hPa Calm     Humidity % 0 mm
00:02 -8 °C -10.7 °C 34496.6 hPa Calm   2.6 km/h 73 % 0 mm
00:12 -8.2 °C -10.8 °C 34496.6 hPa Calm     74 % 0 mm
00:17 -8.2 °C -10.8 °C 34510.1 hPa Calm     74 % 0 mm
00:22 -8.3 °C -10.9 °C 34496.6 hPa Calm     74 % 0 mm
00:27 -8.4 °C -10.9 °C 34496.6 hPa Calm     75 % 0 mm
00:32 -8.4 °C -10.9 °C 34496.6 hPa Calm     75 % 0 mm
00:37 -8.4 °C -10.9 °C 34496.6 hPa SSW 5.1 km/h   75 % 0 mm
00:42 -8 °C -10.6 °C 34496.6 hPa SW 7.7 km/h 7.7 km/h 74 % 0 mm
00:52 -7.6 °C -10.7 °C 34496.6 hPa WSW 5.1 km/h 12.9 km/h 70 % 0 mm
01:02 -7.4 °C -10.7 °C 34496.6 hPa West 10.3 km/h 12.9 km/h 69 % 0 mm
01:07 -7.4 °C -10.7 °C 34496.6 hPa West 7.7 km/h 12.9 km/h 69 % 0 mm
01:12 -7.5 °C -10.7 °C 34496.6 hPa West 2.6 km/h 12.9 km/h 69 % 0 mm
01:17 -7.4 °C -10.7 °C 34496.6 hPa West 5.1 km/h 12.9 km/h 69 % 0 mm
01:22 -7.4 °C -10.7 °C 34496.6 hPa WNW 2.6 km/h 12.9 km/h 69 % 0 mm
01:32 -7.3 °C -10.7 °C 34496.6 hPa West 2.6 km/h 15.6 km/h 68 % 0 mm
01:42 -7.4 °C -10.9 °C 34496.6 hPa WNW 5.1 km/h 12.9 km/h 67 % 0 mm
01:52 -7.3 °C -10.9 °C 34496.6 hPa WNW 7.7 km/h 15.6 km/h 66 % 0 mm
02:02 -7.3 °C -11 °C 34496.6 hPa West 18.2 km/h 20.8 km/h 65 % 0 mm
02:07 -7.2 °C -10.9 °C 34496.6 hPa WNW 7.7 km/h 36.2 km/h 65 % 0 mm
02:12 -7.3 °C -11 °C 34496.6 hPa WSW 10.3 km/h 36.2 km/h 65 % 0 mm
02:22 -7.4 °C -11 °C 34496.6 hPa WNW 12.9 km/h 28.5 km/h 66 % 0 mm
02:27 -7.4 °C -11 °C 34496.6 hPa West 7.7 km/h 23.3 km/h 66 % 0 mm
02:32 -7.5 °C -10.9 °C 34496.6 hPa WNW 5.1 km/h 23.3 km/h 67 % 0 mm
02:42 -7.6 °C -10.9 °C 34496.6 hPa West 10.3 km/h 23.3 km/h 68 % 0 mm
02:47 -7.6 °C -10.9 °C 34496.6 hPa West 18.2 km/h 23.3 km/h 68 % 0 mm
02:52 -7.7 °C -11 °C 34510.1 hPa West 15.6 km/h 23.3 km/h 68 % 0 mm
02:57 -7.7 °C -11.1 °C 34510.1 hPa WSW 7.7 km/h 23.3 km/h 68 % 0 mm
03:02 -7.8 °C -11.1 °C 34510.1 hPa West 5.1 km/h 23.3 km/h 68 % 0 mm
03:07 -7.9 °C -11.1 °C 34510.1 hPa West 7.7 km/h 18.2 km/h 69 % 0 mm
03:12 -7.9 °C -11 °C 34510.1 hPa WSW 10.3 km/h 18.2 km/h 70 % 0 mm
03:22 -8.1 °C -11.2 °C 34510.1 hPa West 12.9 km/h 12.9 km/h 70 % 0 mm
03:32 -8.2 °C -11.1 °C 34510.1 hPa West 5.1 km/h 15.6 km/h 71 % 0 mm
03:42 -8.2 °C -11.2 °C 34496.6 hPa WSW 2.6 km/h 15.6 km/h 71 % 0 mm
03:47 -8.3 °C -11.2 °C 34510.1 hPa West 2.6 km/h 15.6 km/h 72 % 0 mm
03:52 -8.4 °C -11.1 °C 34510.1 hPa SW 7.7 km/h 15.6 km/h 73 % 0 mm
03:57 -8.4 °C -11.2 °C 34510.1 hPa West 2.6 km/h 10.3 km/h 73 % 0 mm
04:02 -8.6 °C -11.2 °C 34510.1 hPa West 5.1 km/h 10.3 km/h 74 % 0 mm
04:07 -8.7 °C -11.2 °C 34510.1 hPa West 2.6 km/h 10.3 km/h 74 % 0 mm
04:12 -8.7 °C -11.2 °C 34510.1 hPa WNW 12.9 km/h 12.9 km/h 74 % 0 mm
04:17 -8.7 °C -11.2 °C 34510.1 hPa WSW 10.3 km/h 12.9 km/h 75 % 0 mm
04:27 -8.8 °C -11.2 °C 34510.1 hPa WSW 2.6 km/h 12.9 km/h 75 % 0 mm
04:32 -8.8 °C -11.2 °C 34510.1 hPa WSW 5.1 km/h 12.9 km/h 76 % 0 mm
04:37 -9 °C -11.3 °C 34510.1 hPa WSW 5.1 km/h 10.3 km/h 76 % 0 mm
04:42 -9.1 °C -11.3 °C 34510.1 hPa SW 2.6 km/h 10.3 km/h 77 % 0 mm
04:47 -9.1 °C -11.3 °C 34510.1 hPa SSW 5.1 km/h 15.6 km/h 77 % 0 mm
04:52 -9.2 °C -11.3 °C 34510.1 hPa SSW 5.1 km/h 15.6 km/h 78 % 0 mm
05:02 -9.3 °C -11.4 °C 34510.1 hPa SW 7.7 km/h 12.9 km/h 78 % 0 mm
05:12 -9.3 °C -11.3 °C 34510.1 hPa SW 5.1 km/h 18.2 km/h 79 % 0 mm
05:22 -9.6 °C -11.4 °C 34520.3 hPa SSW 10.3 km/h 18.2 km/h 81 % 0 mm
05:32 -9.7 °C -11.3 °C 34520.3 hPa SW 2.6 km/h 15.6 km/h 82 % 0 mm
05:42 -9.8 °C -11.4 °C 34520.3 hPa West 5.1 km/h 15.6 km/h 82 % 0 mm
05:52 -9.9 °C -11.6 °C 34520.3 hPa Calm   12.9 km/h 82 % 0 mm
06:02 -9.9 °C -11.5 °C 34520.3 hPa SW 10.3 km/h 10.3 km/h 83 % 0 mm
06:07 -10 °C -11.6 °C 34520.3 hPa WSW 10.3 km/h 12.9 km/h 83 % 0 mm
06:12 -10.1 °C -11.6 °C 34520.3 hPa WSW 2.6 km/h 12.9 km/h 83 % 0 mm
06:17 -10.1 °C -11.6 °C 34520.3 hPa Calm   12.9 km/h 84 % 0 mm
06:22 -10.2 °C -11.7 °C 34520.3 hPa Calm   12.9 km/h 84 % 0 mm
06:32 -10.4 °C -11.8 °C 34533.8 hPa SE 2.6 km/h 10.3 km/h 85 % 0 mm
06:37 -10.4 °C -11.8 °C 34533.8 hPa Calm   5.1 km/h 85 % 0 mm
06:42 -10.3 °C -11.7 °C 34533.8 hPa South 2.6 km/h 5.1 km/h 85 % 0 mm
06:47 -10.2 °C -11.6 °C 34533.8 hPa SW 5.1 km/h 7.7 km/h 85 % 0 mm
06:57 -10.1 °C -11.6 °C 34520.3 hPa SW 5.1 km/h 7.7 km/h 84 % 0 mm
07:07 -10.1 °C -11.4 °C 34533.8 hPa SSW 2.6 km/h 10.3 km/h 85 % 0 mm
07:12 -9.9 °C -11.3 °C 34533.8 hPa SSW 7.7 km/h 10.3 km/h 85 % 0 mm
07:17 -9.7 °C -11.1 °C 34533.8 hPa SSW 7.7 km/h 10.3 km/h 85 % 0 mm
07:22 -9.5 °C -11 °C 34533.8 hPa SW 12.9 km/h 12.9 km/h 84 % 0 mm
07:32 -9.3 °C -11 °C 34533.8 hPa WSW 10.3 km/h 18.2 km/h 82 % 0 mm
07:37 -9.2 °C -10.9 °C 34533.8 hPa WSW 18.2 km/h 25.9 km/h 82 % 0 mm
07:42 -9.2 °C -10.9 °C 34533.8 hPa WSW 10.3 km/h 25.9 km/h 82 % 0 mm
07:52 -9.2 °C -10.9 °C 34533.8 hPa SW 20.8 km/h 28.5 km/h 82 % 0 mm
08:02 -9.1 °C -10.8 °C 34533.8 hPa SW 28.5 km/h 31.1 km/h 82 % 0 mm
08:07 -9.1 °C -10.7 °C 34533.8 hPa WSW 15.6 km/h 31.1 km/h 83 % 0 mm
08:12 -9 °C -10.7 °C 34533.8 hPa WSW 12.9 km/h 31.1 km/h 82 % 0 mm
08:17 -9 °C -10.6 °C 34533.8 hPa WSW 7.7 km/h 31.1 km/h 83 % 0 mm
08:22 -8.9 °C -10.6 °C 34533.8 hPa West 23.3 km/h 31.1 km/h 82 % 0 mm
08:32 -8.8 °C -10.4 °C 34533.8 hPa SW 12.9 km/h 38.8 km/h 83 % 0 mm
08:37 -8.7 °C -10.4 °C 34533.8 hPa West 10.3 km/h 31.1 km/h 82 % 0 mm
08:42 -8.6 °C -10.4 °C 34533.8 hPa WSW 7.7 km/h 31.1 km/h 81 % 0 mm
08:47 -8.4 °C -10.3 °C 34533.8 hPa West 12.9 km/h 31.1 km/h 81 % 0 mm
08:52 -8.4 °C -10.3 °C 34533.8 hPa WSW 10.3 km/h 31.1 km/h 80 % 0 mm
09:02 -8.2 °C -10 °C 34533.8 hPa SSW 5.1 km/h 31.1 km/h 81 % 0 mm
09:12 -8.1 °C -10.2 °C 34520.3 hPa SW 12.9 km/h 33.6 km/h 79 % 0 mm
09:22 -8.2 °C -10.2 °C 34520.3 hPa WSW 12.9 km/h 28.5 km/h 79 % 0 mm
09:32 -8.1 °C -10.3 °C 34520.3 hPa WSW 7.7 km/h 25.9 km/h 78 % 0 mm
09:37 -8.1 °C -10.2 °C 34533.8 hPa SW 12.9 km/h 28.5 km/h 78 % 0 mm
09:42 -8 °C -10.3 °C 34520.3 hPa WSW 18.2 km/h 28.5 km/h 77 % 0 mm
09:47 -8 °C -10.2 °C 34520.3 hPa SSW 15.6 km/h 28.5 km/h 78 % 0 mm
09:52 -7.9 °C -10.1 °C 34533.8 hPa SW 15.6 km/h 28.5 km/h 78 % 0 mm
10:02 -7.8 °C -10.2 °C 34520.3 hPa WNW 12.9 km/h 28.5 km/h 76 % 0 mm
10:12 -7.8 °C -10.3 °C 34533.8 hPa West 10.3 km/h 33.6 km/h 75 % 0 mm
10:17 -7.8 °C -10.3 °C 34533.8 hPa West 25.9 km/h 41.4 km/h 75 % 0 mm
10:22 -7.7 °C -10.1 °C 34533.8 hPa West 15.6 km/h 41.4 km/h 76 % 0 mm
10:32 -7.7 °C -10.1 °C 34533.8 hPa WSW 7.7 km/h 41.4 km/h 76 % 0 mm
10:37 -7.7 °C -10.1 °C 34533.8 hPa West 23.3 km/h 33.6 km/h 76 % 0 mm
10:42 -7.7 °C -10 °C 34533.8 hPa West 10.3 km/h 33.6 km/h 77 % 0 mm
10:47 -7.6 °C -9.8 °C 34533.8 hPa West 7.7 km/h 33.6 km/h 78 % 0 mm
10:52 -7.6 °C -9.8 °C 34533.8 hPa WSW 28.5 km/h 33.6 km/h 78 % 0 mm
11:02 -7.7 °C -9.7 °C 34533.8 hPa West 10.3 km/h 28.5 km/h 80 % 0 mm
11:12 -7.7 °C -9.7 °C 34533.8 hPa WSW 23.3 km/h 28.5 km/h 80 % 0 mm
11:17 -7.8 °C -9.7 °C 34533.8 hPa WSW 31.1 km/h 31.1 km/h 81 % 0 mm
11:22 -7.9 °C -9.6 °C 34533.8 hPa West 15.6 km/h 31.1 km/h 82 % 0 mm
11:32 -7.7 °C -9.7 °C 34533.8 hPa WSW 12.9 km/h 31.1 km/h 80 % 0 mm
11:37 -7.7 °C -9.6 °C 34533.8 hPa WNW 10.3 km/h 25.9 km/h 80 % 0 mm
11:42 -7.7 °C -9.5 °C 34533.8 hPa West 18.2 km/h 25.9 km/h 81 % 0 mm
11:52 -7.6 °C -9.6 °C 34533.8 hPa SW 10.3 km/h 31.1 km/h 80 % 0 mm
12:02 -7.5 °C -9.4 °C 34533.8 hPa SW 20.8 km/h 31.1 km/h 80 % 0 mm
12:07 -7.3 °C -9.3 °C 34533.8 hPa SSW 5.1 km/h 31.1 km/h 80 % 0 mm
12:12 -7.3 °C -9.4 °C 34533.8 hPa SSW 15.6 km/h 31.1 km/h 79 % 0 mm
12:17 -7.3 °C -9.3 °C 34544 hPa WSW 12.9 km/h 28.5 km/h 79 % 0 mm
12:22 -7.2 °C -9.3 °C 34533.8 hPa SW 15.6 km/h 28.5 km/h 78 % 0 mm
12:32 -7.2 °C -9.3 °C 34533.8 hPa WSW 5.1 km/h 28.5 km/h 78 % 0 mm
12:42 -7 °C -9.2 °C 34533.8 hPa SW 12.9 km/h 28.5 km/h 78 % 0 mm
12:52 -6.9 °C -9.1 °C 34533.8 hPa SW 20.8 km/h 28.5 km/h 78 % 0 mm
13:02 -6.7 °C -9.2 °C 34533.8 hPa SSW 7.7 km/h 31.1 km/h 76 % 0 mm
13:12 -6.6 °C -9 °C 34533.8 hPa West 12.9 km/h 28.5 km/h 76 % 0 mm
13:17 -6.6 °C -9.1 °C 34533.8 hPa West 10.3 km/h 28.5 km/h 75 % 0 mm
13:22 -6.5 °C -8.9 °C 34533.8 hPa West 18.2 km/h 28.5 km/h 76 % 0 mm
13:32 -6.3 °C -9 °C 34533.8 hPa West 15.6 km/h 28.5 km/h 74 % 0 mm
13:37 -6.3 °C -8.8 °C 34533.8 hPa WSW 7.7 km/h 28.5 km/h 75 % 0 mm
13:42 -6.2 °C -9.1 °C 34533.8 hPa West 12.9 km/h 28.5 km/h 72 % 0 mm
13:47 -6.2 °C -9.1 °C 34533.8 hPa SW 18.2 km/h 28.5 km/h 72 % 0 mm
13:52 -6.2 °C -9.2 °C 34533.8 hPa West 7.7 km/h 36.2 km/h 71 % 0 mm
13:57 -6.2 °C -9.1 °C 34533.8 hPa WSW 18.2 km/h 36.2 km/h 72 % 0 mm
14:02 -6.3 °C -9.1 °C 34533.8 hPa SW 7.7 km/h 25.9 km/h 73 % 0 mm
14:12 -6.2 °C -9.1 °C 34533.8 hPa SW 15.6 km/h 28.5 km/h 72 % 0 mm
14:17 -6.1 °C -9.2 °C 34520.3 hPa WSW 18.2 km/h 28.5 km/h 70 % 0 mm
14:22 -6 °C -9.3 °C 34520.3 hPa WSW 12.9 km/h 28.5 km/h 69 % 0 mm
14:27 -5.8 °C -9.2 °C 34520.3 hPa WSW 10.3 km/h 33.6 km/h 68 % 0 mm
14:32 -5.7 °C -9 °C 34520.3 hPa West 10.3 km/h 33.6 km/h 69 % 0 mm
14:37 -5.7 °C -9.2 °C 34520.3 hPa WNW 10.3 km/h 31.1 km/h 68 % 0 mm
14:42 -5.7 °C -9.2 °C 34520.3 hPa SW 18.2 km/h 31.1 km/h 68 % 0 mm
14:47 -5.7 °C -9.1 °C 34520.3 hPa West 18.2 km/h 31.1 km/h 68 % 0 mm
14:52 -5.7 °C -9.1 °C 34520.3 hPa West 7.7 km/h 31.1 km/h 68 % 0 mm
14:57 -5.7 °C -9.1 °C 34520.3 hPa WNW 5.1 km/h 28.5 km/h 68 % 0 mm
15:02 -5.6 °C -9.2 °C 34520.3 hPa WNW 12.9 km/h 28.5 km/h 67 % 0 mm
15:12 -5.4 °C -9 °C 34510.1 hPa NNW 5.1 km/h 23.3 km/h 67 % 0 mm
15:17 -5.3 °C -9.2 °C 34510.1 hPa WNW 10.3 km/h 20.8 km/h 65 % 0 mm
15:22 -5.4 °C -9.3 °C 34510.1 hPa West 12.9 km/h 20.8 km/h 65 % 0 mm
15:27 -5.3 °C -9.1 °C 34510.1 hPa West 15.6 km/h 28.5 km/h 66 % 0 mm
15:32 -5.1 °C -8.9 °C 34510.1 hPa West 20.8 km/h 28.5 km/h 65 % 0 mm
15:42 -5.1 °C -9.2 °C 34496.6 hPa WNW 18.2 km/h 28.5 km/h 63 % 0 mm
15:47 -4.9 °C -9.2 °C 34496.6 hPa WSW 20.8 km/h 28.5 km/h 62 % 0 mm
15:52 -4.9 °C -9.2 °C 34496.6 hPa West 15.6 km/h 28.5 km/h 62 % 0 mm
15:57 -5.1 °C -9.1 °C 34496.6 hPa WNW 12.9 km/h 25.9 km/h 64 % 0 mm
16:02 -4.9 °C -9.2 °C 34496.6 hPa WSW 5.1 km/h 25.9 km/h 62 % 0 mm
16:12 -4.9 °C -9.3 °C 34486.4 hPa WSW 12.9 km/h 23.3 km/h 61 % 0 mm
16:17 -4.9 °C -9.2 °C 34486.4 hPa WSW 7.7 km/h 25.9 km/h 62 % 0 mm
16:22 -4.8 °C -9.3 °C 34486.4 hPa WSW 18.2 km/h 25.9 km/h 60 % 0 mm
16:27 -4.7 °C -9.6 °C 34476.3 hPa WNW 12.9 km/h 31.1 km/h 58 % 0 mm
16:32 -4.7 °C -9.5 °C 34476.3 hPa West 12.9 km/h 31.1 km/h 58 % 0 mm
16:42 -4.3 °C -10 °C 34476.3 hPa WNW 10.3 km/h 36.2 km/h 53 % 0 mm
16:52 -4.2 °C -9.6 °C 34462.7 hPa WNW 20.8 km/h 31.1 km/h 55 % 0 mm
16:57 -4.2 °C -9.8 °C 34462.7 hPa WSW 5.1 km/h 38.8 km/h 53 % 0 mm
17:02 -4.2 °C -9.7 °C 34462.7 hPa West 15.6 km/h 38.8 km/h 54 % 0 mm
17:12 -4.4 °C -9.6 °C 34462.7 hPa SSW 7.7 km/h 38.8 km/h 56 % 0 mm
17:17 -4.5 °C -9.5 °C 34462.7 hPa WSW 10.3 km/h 33.6 km/h 57 % 0 mm
17:22 -4.4 °C -9.4 °C 34462.7 hPa WNW 5.1 km/h 33.6 km/h 57 % 0 mm
17:27 -4.3 °C -9.3 °C 34462.7 hPa West 12.9 km/h 20.8 km/h 57 % 0 mm
17:32 -4.3 °C -9.5 °C 34462.7 hPa WNW 15.6 km/h 20.8 km/h 56 % 0 mm
17:37 -4.3 °C -9.3 °C 34462.7 hPa WNW 10.3 km/h 31.1 km/h 57 % 0 mm
17:42 -4.1 °C -9.4 °C 34462.7 hPa WSW 12.9 km/h 31.1 km/h 55 % 0 mm
17:52 -4 °C -9.4 °C 34462.7 hPa WNW 7.7 km/h 31.1 km/h 55 % 0 mm
17:57 -4.1 °C -9.6 °C 34452.6 hPa WNW 15.6 km/h 28.5 km/h 54 % 0 mm
18:02 -4.2 °C -9.6 °C 34452.6 hPa NW 7.7 km/h 28.5 km/h 55 % 0 mm
18:12 -3.9 °C -9.2 °C 34452.6 hPa West 5.1 km/h 28.5 km/h 56 % 0 mm
18:17 -3.8 °C -9.4 °C 34452.6 hPa West 5.1 km/h 23.3 km/h 54 % 0 mm
18:22 -3.9 °C -9.4 °C 34452.6 hPa West 10.3 km/h 23.3 km/h 54 % 0 mm
18:32 -4.2 °C -9.2 °C 34442.4 hPa WSW 5.1 km/h 23.3 km/h 57 % 0 mm
18:42 -3.8 °C -9.2 °C 34442.4 hPa West 2.6 km/h 18.2 km/h 55 % 0 mm
18:47 -3.7 °C -9.3 °C 34442.4 hPa WNW 10.3 km/h 18.2 km/h 54 % 0 mm
18:57 -4.1 °C -9.3 °C 34442.4 hPa West 10.3 km/h 28.5 km/h 56 % 0 mm
19:02 -4.2 °C -9.3 °C 34452.6 hPa SW 10.3 km/h 28.5 km/h 57 % 0 mm
19:12 -4.3 °C -9.2 °C 34442.4 hPa SW 5.1 km/h 28.5 km/h 58 % 0 mm
19:22 -3.9 °C -8.8 °C 34442.4 hPa SW 7.7 km/h 18.2 km/h 58 % 0 mm
19:27 -3.9 °C -9 °C 34442.4 hPa SW 12.9 km/h 15.6 km/h 57 % 0 mm
19:32 -4.1 °C -9.2 °C 34442.4 hPa WSW 12.9 km/h 15.6 km/h 57 % 0 mm
19:42 -3.9 °C -9 °C 34442.4 hPa SW 2.6 km/h 15.6 km/h 57 % 0 mm
19:47 -3.8 °C -9.1 °C 34442.4 hPa SW 12.9 km/h 15.6 km/h 56 % 0 mm
19:57 -3.8 °C -8.9 °C 34442.4 hPa SW 10.3 km/h 15.6 km/h 57 % 0 mm
20:02 -3.8 °C -9 °C 34442.4 hPa WSW 2.6 km/h 15.6 km/h 56 % 0 mm
20:12 -3.8 °C -9.2 °C 34428.8 hPa WSW 5.1 km/h 15.6 km/h 55 % 0 mm
20:17 -3.7 °C -8.9 °C 34428.8 hPa WNW 5.1 km/h 18.2 km/h 56 % 0 mm
20:27 -3.7 °C -9.1 °C 34428.8 hPa West 7.7 km/h 10.3 km/h 55 % 0 mm
20:32 -3.8 °C -9.1 °C 34428.8 hPa NW 2.6 km/h 10.3 km/h 56 % 0 mm
20:42 -3.8 °C -9 °C 34428.8 hPa Calm   10.3 km/h 56 % 0 mm
20:47 -3.6 °C -8.9 °C 34428.8 hPa WNW 2.6 km/h 12.9 km/h 55 % 0 mm
20:52 -3.7 °C -9.1 °C 34428.8 hPa Calm   12.9 km/h 55 % 0 mm
20:57 -3.7 °C -9.1 °C 34428.8 hPa Calm   5.1 km/h 55 % 0 mm
21:02 -3.6 °C -9 °C 34428.8 hPa Calm   5.1 km/h 55 % 0 mm
21:12 -3.7 °C -9.1 °C 34418.7 hPa Calm   5.1 km/h 55 % 0 mm
21:17 -3.8 °C -9 °C 34428.8 hPa Calm   2.6 km/h 56 % 0 mm
21:27 -4.1 °C -8.9 °C 34418.7 hPa Calm   2.6 km/h 58 % 0 mm
21:32 -4.3 °C -9.1 °C 34418.7 hPa Calm   2.6 km/h 59 % 0 mm
21:37 -4.6 °C -9.1 °C 34428.8 hPa Calm   5.1 km/h 60 % 0 mm
21:42 -4.7 °C -9.2 °C 34428.8 hPa Calm   5.1 km/h 61 % 0 mm
21:47 -4.9 °C -9.1 °C 34428.8 hPa Calm   5.1 km/h 63 % 0 mm
21:52 -5.3 °C -9.3 °C 34428.8 hPa Calm   2.6 km/h 64 % 0 mm
21:57 -5.5 °C -9.2 °C 34428.8 hPa Calm     66 % 0 mm
22:02 -5.7 °C -9.3 °C 34428.8 hPa Calm     67 % 0 mm
22:12 -6.1 °C -9.3 °C 34442.4 hPa Calm     69 % 0 mm
22:17 -6.2 °C -9.2 °C 34442.4 hPa Calm   2.6 km/h 71 % 0 mm
22:22 -6.3 °C -9.3 °C 34442.4 hPa Calm   2.6 km/h 71 % 0 mm
22:27 -6.5 °C -9.4 °C 34442.4 hPa Calm     72 % 0 mm
22:32 -6.5 °C -9.3 °C 34442.4 hPa Calm     73 % 0 mm
22:37 -6.6 °C -9.4 °C 34442.4 hPa Calm     73 % 0 mm
22:42 -6.7 °C -9.5 °C 34442.4 hPa Calm     73 % 0 mm
22:47 -6.8 °C -9.4 °C 34442.4 hPa Calm     74 % 0 mm
22:52 -6.9 °C -9.5 °C 34442.4 hPa Calm     75 % 0 mm
22:57 -7 °C -9.4 °C 34442.4 hPa Calm     76 % 0 mm
23:02 -7.1 °C -9.3 °C 34442.4 hPa Calm     77 % 0 mm
23:12 -7.2 °C -9.3 °C 34442.4 hPa Calm     78 % 0 mm
23:17 -7.3 °C -9.4 °C 34442.4 hPa Calm     79 % 0 mm
23:22 -7.4 °C -9.5 °C 34442.4 hPa Calm     79 % 0 mm
23:27 -7.4 °C -9.4 °C 34442.4 hPa Calm     80 % 0 mm
23:32 -7.4 °C -9.4 °C 34442.4 hPa Calm     80 % 0 mm
23:37 -7.6 °C -9.5 °C 34442.4 hPa Calm     80 % 0 mm
23:42 -7.6 °C -9.5 °C 34442.4 hPa Calm     80 % 0 mm
23:52 -7.8 °C -9.7 °C 34442.4 hPa Calm     81 % 0 mm
Meteo18
Compliments of Weather Underground - 4 mb

Script developed by  Jim McMurry - jmcmurry@mwt.net Adapted for the template by  Wim van der Kuil - Leuven-Template.eu

You find our weather info also at:

European Weather Network

Weather Underground

Equipment we use:

Weather-station
Davis Vue

Weather-program
Meteobridge

Weather-server
Raspberry PI 2 B+

Provider
1 and 1

Davis Vue

Meteobridge

Raspberry PI 2 B+

1 and 1